createdAt,value
2023-12-12T00:01:18.450Z,36.63
2023-12-12T00:03:46.879Z,33.87
2023-12-12T00:06:15.535Z,37.80
2023-12-12T00:08:43.536Z,32.73
2023-12-12T00:11:12.196Z,28.77
2023-12-12T00:13:40.987Z,24.10
2023-12-12T00:16:09.733Z,23.03
2023-12-12T00:18:38.488Z,21.50
2023-12-12T00:21:07.670Z,27.13
2023-12-12T00:23:36.111Z,29.60
2023-12-12T00:26:04.737Z,31.00
2023-12-12T00:28:32.840Z,32.57
2023-12-12T00:31:02.004Z,28.93
2023-12-12T00:33:31.185Z,29.13
2023-12-12T00:36:01.310Z,33.77
2023-12-12T00:38:32.557Z,31.10
2023-12-12T00:41:00.961Z,27.33
2023-12-12T00:43:29.451Z,30.60
2023-12-12T00:45:58.135Z,27.73
2023-12-12T00:51:07.153Z,26.10
2023-12-12T00:53:35.621Z,23.07
2023-12-12T00:56:04.322Z,26.50
2023-12-12T00:58:32.865Z,24.40
2023-12-12T01:01:02.249Z,24.57
2023-12-12T01:03:30.449Z,25.70
2023-12-12T01:05:59.110Z,27.67
2023-12-12T01:08:27.952Z,21.57
2023-12-12T01:10:56.411Z,25.10
2023-12-12T01:13:25.025Z,22.37
2023-12-12T01:15:53.538Z,19.70
2023-12-12T01:18:22.191Z,27.60
2023-12-12T01:20:50.254Z,25.37
2023-12-12T01:23:18.259Z,27.57
2023-12-12T01:25:46.209Z,24.73
2023-12-12T01:28:14.148Z,24.13
2023-12-12T01:30:42.590Z,32.40
2023-12-12T01:33:11.027Z,28.93
2023-12-12T01:35:39.499Z,30.53
2023-12-12T01:38:07.880Z,34.90
2023-12-12T01:40:36.422Z,27.03
2023-12-12T01:43:08.060Z,27.47
2023-12-12T01:45:36.509Z,28.43
2023-12-12T01:48:05.745Z,31.57
2023-12-12T01:50:33.834Z,28.27
2023-12-12T01:53:02.260Z,28.30
2023-12-12T01:55:30.864Z,28.33
2023-12-12T01:57:59.877Z,31.37
2023-12-12T02:00:27.989Z,25.97
2023-12-12T02:02:56.058Z,25.40
2023-12-12T02:05:25.417Z,26.33
2023-12-12T02:07:54.560Z,24.97
2023-12-12T02:10:22.970Z,28.03
2023-12-12T02:12:51.786Z,30.10
2023-12-12T02:15:20.438Z,28.60
2023-12-12T02:17:48.951Z,29.17
2023-12-12T02:20:17.291Z,23.70
2023-12-12T02:22:45.476Z,22.87
2023-12-12T02:25:13.579Z,26.23
2023-12-12T02:27:42.225Z,27.07
2023-12-12T02:30:11.439Z,27.23
2023-12-12T02:32:39.433Z,27.93
2023-12-12T02:35:08.190Z,28.27
2023-12-12T02:37:36.817Z,29.10
2023-12-12T02:40:05.941Z,26.53
2023-12-12T02:42:34.049Z,32.17
2023-12-12T02:45:02.146Z,29.73
2023-12-12T02:47:30.576Z,31.27
2023-12-12T02:49:59.593Z,34.40
2023-12-12T02:52:28.146Z,35.90
2023-12-12T02:54:56.252Z,34.27
2023-12-12T02:57:25.233Z,31.93
2023-12-12T02:59:53.928Z,34.97
2023-12-12T03:02:22.517Z,41.30
2023-12-12T03:04:50.745Z,40.00
2023-12-12T03:07:19.398Z,37.63
2023-12-12T03:09:47.903Z,36.97
2023-12-12T03:12:15.976Z,38.80
2023-12-12T03:14:44.393Z,39.93
2023-12-12T03:17:12.693Z,41.30
2023-12-12T03:19:41.459Z,38.97
2023-12-12T03:22:10.124Z,43.80
2023-12-12T03:24:39.465Z,42.87
2023-12-12T03:27:09.849Z,41.27
2023-12-12T03:29:38.364Z,35.30
2023-12-12T03:32:07.248Z,44.27
2023-12-12T03:34:35.877Z,39.13
2023-12-12T03:37:04.431Z,36.90
2023-12-12T03:39:33.003Z,40.57
2023-12-12T03:42:01.696Z,41.63
2023-12-12T03:44:30.142Z,41.67
2023-12-12T03:46:58.239Z,46.10
2023-12-12T03:49:26.338Z,35.37
2023-12-12T03:51:55.116Z,36.57
2023-12-12T03:54:23.590Z,45.67
2023-12-12T03:56:53.130Z,42.93
2023-12-12T03:59:21.713Z,52.67
2023-12-12T04:01:50.123Z,48.50
2023-12-12T04:04:19.370Z,50.83
2023-12-12T04:06:48.702Z,45.70
2023-12-12T04:09:16.900Z,46.07
2023-12-12T04:11:44.950Z,43.10
2023-12-12T04:14:13.484Z,44.67
2023-12-12T04:16:42.196Z,42.57
2023-12-12T04:19:10.882Z,39.53
2023-12-12T04:21:39.041Z,50.70
2023-12-12T04:24:07.718Z,43.07
2023-12-12T04:26:36.424Z,42.30
2023-12-12T04:29:06.352Z,46.53
2023-12-12T04:31:35.027Z,51.83
2023-12-12T04:34:03.753Z,46.93
2023-12-12T04:36:31.810Z,47.30
2023-12-12T04:39:00.455Z,44.53
2023-12-12T04:41:28.455Z,52.37
2023-12-12T04:43:57.118Z,47.03
2023-12-12T04:46:25.638Z,49.20
2023-12-12T04:48:54.430Z,52.10
2023-12-12T04:51:23.179Z,50.83
2023-12-12T04:53:51.718Z,49.77
2023-12-12T04:56:20.654Z,64.80
2023-12-12T04:58:49.100Z,60.13
2023-12-12T05:01:18.149Z,62.17
2023-12-12T05:03:47.564Z,52.63
2023-12-12T05:06:16.189Z,52.50
2023-12-12T05:08:44.713Z,51.87
2023-12-12T05:11:16.476Z,51.70
2023-12-12T05:13:45.751Z,44.00
2023-12-12T05:16:24.178Z,41.23
2023-12-12T05:21:12.037Z,32.85
2023-12-12T05:23:40.502Z,38.13
2023-12-12T05:26:09.171Z,37.20
2023-12-12T05:28:37.817Z,39.10
2023-12-12T05:31:06.406Z,36.13
2023-12-12T05:33:35.746Z,37.47
2023-12-12T05:36:04.354Z,37.07
2023-12-12T05:38:33.674Z,36.50
2023-12-12T05:41:03.232Z,35.43
2023-12-12T05:43:31.306Z,50.03
2023-12-12T05:46:00.647Z,36.13
2023-12-12T05:48:29.895Z,42.70
2023-12-12T05:50:59.417Z,49.37
2023-12-12T05:53:28.355Z,42.90
2023-12-12T05:55:57.495Z,45.03
2023-12-12T05:58:26.324Z,51.63
2023-12-12T06:00:54.576Z,49.17
2023-12-12T06:03:23.369Z,51.53
2023-12-12T06:05:52.151Z,56.60
2023-12-12T06:08:20.116Z,53.13
2023-12-12T06:10:48.749Z,47.40
2023-12-12T06:13:17.774Z,44.83
2023-12-12T06:15:46.251Z,40.13
2023-12-12T06:18:14.880Z,41.97
2023-12-12T06:20:43.468Z,48.27
2023-12-12T06:23:13.713Z,48.17
2023-12-12T06:25:42.255Z,52.57
2023-12-12T06:28:10.964Z,53.97
2023-12-12T06:30:39.582Z,55.97
2023-12-12T06:33:08.369Z,53.27
2023-12-12T06:35:37.009Z,58.93
2023-12-12T06:38:05.904Z,52.97
2023-12-12T06:40:34.499Z,63.67
2023-12-12T06:43:03.340Z,54.93
2023-12-12T06:45:31.953Z,63.93
2023-12-12T06:48:00.557Z,73.40
2023-12-12T06:50:28.916Z,79.83
2023-12-12T06:52:57.503Z,77.33
2023-12-12T06:55:27.187Z,83.70
2023-12-12T07:00:23.558Z,72.47
2023-12-12T07:02:52.771Z,70.90
2023-12-12T07:05:21.606Z,69.23
2023-12-12T07:07:50.327Z,56.80
2023-12-12T07:10:18.977Z,49.57
2023-12-12T07:12:47.739Z,42.43
2023-12-12T07:15:16.281Z,37.10
2023-12-12T07:17:45.004Z,41.30
2023-12-12T07:20:13.733Z,26.70
2023-12-12T07:22:41.768Z,25.03
2023-12-12T07:25:10.656Z,29.43
2023-12-12T07:27:38.746Z,51.30
2023-12-12T07:30:07.751Z,39.03
2023-12-12T07:32:36.565Z,36.80
2023-12-12T07:35:05.288Z,38.70
2023-12-12T07:37:34.249Z,35.50
2023-12-12T07:40:05.767Z,37.17
2023-12-12T07:42:34.623Z,35.93
2023-12-12T07:45:03.378Z,37.57
2023-12-12T07:47:37.616Z,34.67
2023-12-12T07:50:01.960Z,38.13
2023-12-12T07:52:30.644Z,40.10
2023-12-12T07:54:58.743Z,36.87
2023-12-12T07:57:27.384Z,42.43
2023-12-12T07:59:55.617Z,35.67
2023-12-12T08:02:24.196Z,38.90
2023-12-12T08:04:53.253Z,36.07
2023-12-12T08:07:23.473Z,29.37
2023-12-12T08:09:51.993Z,36.00
2023-12-12T08:12:20.623Z,31.23
2023-12-12T08:14:50.686Z,28.03
2023-12-12T08:17:20.037Z,23.07
2023-12-12T08:19:48.641Z,24.97
2023-12-12T08:22:17.509Z,22.37
2023-12-12T08:24:47.284Z,23.70
2023-12-12T08:29:43.330Z,24.18
2023-12-12T08:32:11.705Z,21.03
2023-12-12T08:34:40.117Z,21.90
2023-12-12T08:37:08.418Z,18.80
2023-12-12T08:39:36.834Z,17.10
2023-12-12T08:42:05.623Z,16.47
2023-12-12T08:44:34.277Z,25.80
2023-12-12T08:47:03.113Z,17.50
2023-12-12T08:49:31.747Z,17.47
2023-12-12T08:52:00.373Z,14.33
2023-12-12T08:54:28.852Z,19.10
2023-12-12T08:56:56.842Z,24.30
2023-12-12T08:59:24.929Z,26.33
2023-12-12T09:01:53.648Z,22.50
2023-12-12T09:04:22.347Z,20.80
2023-12-12T09:06:50.961Z,24.33
2023-12-12T09:09:19.652Z,19.87
2023-12-12T09:11:50.907Z,16.43
2023-12-12T09:14:19.080Z,17.07
2023-12-12T09:16:47.337Z,17.63
2023-12-12T09:19:18.224Z,16.47
2023-12-12T09:21:46.944Z,18.03
2023-12-12T09:24:15.153Z,19.07
2023-12-12T09:26:44.473Z,11.37
2023-12-12T09:29:12.533Z,9.80
2023-12-12T09:31:41.242Z,6.97
2023-12-12T09:34:10.179Z,7.10
2023-12-12T09:36:38.989Z,11.93
2023-12-12T09:39:09.101Z,9.93
2023-12-12T09:41:37.784Z,9.50
2023-12-12T09:44:06.521Z,8.30
2023-12-12T09:46:35.319Z,9.30
2023-12-12T09:49:06.295Z,7.17
2023-12-12T09:51:35.714Z,8.47
2023-12-12T09:54:06.231Z,6.70
2023-12-12T09:56:35.347Z,9.27
2023-12-12T09:59:04.174Z,10.47
2023-12-12T10:01:35.036Z,7.77
2023-12-12T10:04:05.331Z,12.67
2023-12-12T10:06:35.654Z,9.30
2023-12-12T10:09:04.190Z,7.23
2023-12-12T10:11:32.565Z,10.60
2023-12-12T10:14:02.700Z,14.93
2023-12-12T10:16:34.340Z,12.27
2023-12-12T10:19:03.768Z,9.30
2023-12-12T10:24:00.315Z,7.83
2023-12-12T10:26:33.562Z,8.37
2023-12-12T10:29:02.673Z,10.20
2023-12-12T10:31:31.418Z,8.47
2023-12-12T10:34:00.069Z,8.57
2023-12-12T10:36:29.512Z,8.70
2023-12-12T10:39:01.219Z,11.10
2023-12-12T10:41:30.542Z,10.10
2023-12-12T10:44:02.424Z,15.53
2023-12-12T10:46:31.711Z,22.07
2023-12-12T10:49:00.578Z,15.23
2023-12-12T10:51:30.030Z,13.93
2023-12-12T10:54:01.643Z,16.67
2023-12-12T10:56:32.513Z,13.60
2023-12-12T10:59:55.165Z,12.67
2023-12-12T11:01:33.424Z,8.77
2023-12-12T11:04:04.440Z,13.07
2023-12-12T11:06:34.705Z,8.33
2023-12-12T11:09:03.013Z,11.63
2023-12-12T11:11:32.374Z,16.73
2023-12-12T11:14:02.285Z,17.93
2023-12-12T11:16:32.568Z,10.70
2023-12-12T11:19:03.513Z,8.97
2023-12-12T11:21:48.308Z,14.47
2023-12-12T11:24:18.201Z,8.17
2023-12-12T11:26:48.592Z,7.90
2023-12-12T11:29:17.989Z,12.23
2023-12-12T11:31:59.791Z,8.10
2023-12-12T11:34:28.576Z,6.27
2023-12-12T11:36:59.472Z,7.80
2023-12-12T11:39:34.537Z,11.50
2023-12-12T11:42:07.174Z,8.70
2023-12-12T11:44:47.184Z,7.60
2023-12-12T11:47:17.772Z,6.50
2023-12-12T11:49:46.511Z,6.80
2023-12-12T11:52:32.923Z,7.63
2023-12-12T11:55:02.770Z,6.53
2023-12-12T11:59:59.625Z,4.40
2023-12-12T12:02:31.204Z,5.27
2023-12-12T12:05:00.561Z,3.37
2023-12-12T12:07:29.745Z,3.87
2023-12-12T12:09:59.446Z,8.13
2023-12-12T12:12:27.716Z,4.97
2023-12-12T12:14:57.409Z,4.13
2023-12-12T12:17:27.768Z,6.80
2023-12-12T12:19:59.478Z,4.17
2023-12-12T12:22:28.558Z,8.57
2023-12-12T12:25:00.673Z,6.60
2023-12-12T12:27:29.591Z,5.07
2023-12-12T12:30:05.918Z,7.47
2023-12-12T12:32:34.791Z,6.97
2023-12-12T12:35:13.299Z,7.03
2023-12-12T12:37:43.015Z,9.50
2023-12-12T12:40:13.277Z,11.87
2023-12-12T12:42:43.534Z,7.30
2023-12-12T12:45:11.584Z,6.60
2023-12-12T12:47:40.778Z,7.80
2023-12-12T12:50:09.953Z,9.07
2023-12-12T12:52:38.587Z,9.33
2023-12-12T12:55:08.190Z,7.87
2023-12-12T13:00:04.665Z,4.50
2023-12-12T13:02:33.670Z,5.77
2023-12-12T13:05:03.806Z,5.20
2023-12-12T13:07:33.985Z,10.73
2023-12-12T13:10:02.520Z,10.43
2023-12-12T13:12:31.593Z,11.20
2023-12-12T13:15:00.640Z,9.20
2023-12-12T13:17:32.052Z,8.10
2023-12-12T13:20:02.089Z,5.17
2023-12-12T13:22:31.352Z,8.40
2023-12-12T13:25:01.519Z,7.63
2023-12-12T13:27:30.374Z,7.37
2023-12-12T13:29:58.406Z,8.83
2023-12-12T13:32:26.919Z,8.97
2023-12-12T13:34:55.856Z,7.60
2023-12-12T13:37:24.456Z,8.60
2023-12-12T13:39:53.280Z,11.70
2023-12-12T13:42:21.686Z,8.23
2023-12-12T13:44:50.491Z,12.83
2023-12-12T13:47:19.398Z,15.03
2023-12-12T13:49:48.394Z,12.70
2023-12-12T13:52:16.830Z,13.07
2023-12-12T13:54:45.612Z,13.03
2023-12-12T13:57:15.301Z,10.07
2023-12-12T13:59:44.339Z,16.37
2023-12-12T14:02:26.325Z,15.23
2023-12-12T14:04:43.528Z,12.97
2023-12-12T14:07:12.430Z,15.47
2023-12-12T14:09:41.507Z,17.80
2023-12-12T14:12:10.846Z,14.93
2023-12-12T14:14:39.502Z,19.03
2023-12-12T14:17:08.667Z,19.50
2023-12-12T14:19:37.484Z,21.77
2023-12-12T14:22:06.759Z,23.60
2023-12-12T14:24:35.802Z,19.93
2023-12-12T14:27:06.314Z,21.90
2023-12-12T14:29:35.348Z,24.10
2023-12-12T14:32:04.324Z,29.57
2023-12-12T14:34:32.917Z,25.87
2023-12-12T14:37:03.131Z,35.93
2023-12-12T14:39:32.409Z,38.93
2023-12-12T14:42:00.904Z,38.40
2023-12-12T14:44:30.368Z,30.67
2023-12-12T14:46:58.918Z,25.67
2023-12-12T14:49:27.053Z,25.07
2023-12-12T14:52:00.321Z,29.97
2023-12-12T14:54:29.861Z,22.07
2023-12-12T14:57:06.111Z,19.87
2023-12-12T14:59:29.468Z,20.13
2023-12-12T15:01:58.199Z,12.73
2023-12-12T15:04:26.731Z,13.03
2023-12-12T15:06:55.133Z,16.57
2023-12-12T15:09:25.477Z,11.17
2023-12-12T15:11:53.641Z,12.37
2023-12-12T15:14:23.776Z,8.97
2023-12-12T15:16:52.728Z,13.77
2023-12-12T15:19:21.179Z,19.40
2023-12-12T15:21:51.966Z,16.40
2023-12-12T15:24:20.759Z,65.87
2023-12-12T15:26:49.667Z,43.17
2023-12-12T15:29:18.266Z,33.77
2023-12-12T15:31:47.823Z,35.67
2023-12-12T15:34:16.801Z,31.00
2023-12-12T15:36:45.729Z,38.53
2023-12-12T15:39:14.705Z,37.87
2023-12-12T15:41:42.987Z,38.47
2023-12-12T15:44:11.763Z,40.87
2023-12-12T15:46:40.698Z,85.70
2023-12-12T15:49:09.686Z,64.10
2023-12-12T15:51:39.566Z,68.67
2023-12-12T15:54:08.175Z,47.53
2023-12-12T15:56:36.230Z,59.23
2023-12-12T15:59:04.714Z,76.13
2023-12-12T16:01:34.845Z,109.33
2023-12-12T16:04:05.762Z,132.87
2023-12-12T16:06:34.853Z,109.20
2023-12-12T16:09:03.983Z,181.77
2023-12-12T16:11:32.864Z,190.03
2023-12-12T16:14:02.485Z,190.80
2023-12-12T16:18:57.615Z,92.08
2023-12-12T16:21:26.180Z,62.00
2023-12-12T16:23:54.768Z,50.63
2023-12-12T16:26:23.840Z,61.57
2023-12-12T16:28:52.635Z,78.97
2023-12-12T16:31:22.282Z,77.97
2023-12-12T16:33:50.991Z,81.57
2023-12-12T16:36:20.546Z,153.20
2023-12-12T16:38:51.445Z,189.00
2023-12-12T16:41:20.635Z,235.73
2023-12-12T16:43:49.569Z,245.37
2023-12-12T16:46:18.705Z,229.33
2023-12-12T16:48:47.882Z,192.60
2023-12-12T16:51:16.745Z,176.93
2023-12-12T16:53:46.538Z,150.67
2023-12-12T16:58:42.750Z,112.95
2023-12-12T17:01:12.397Z,114.43
2023-12-12T17:06:08.883Z,184.20
2023-12-12T17:08:37.469Z,118.17
2023-12-12T17:11:06.223Z,154.77
2023-12-12T17:13:34.965Z,166.90
2023-12-12T17:16:03.853Z,140.73
2023-12-12T17:18:32.597Z,108.30
2023-12-12T17:21:02.112Z,75.00
2023-12-12T17:23:30.775Z,78.37
2023-12-12T17:25:59.622Z,80.50
2023-12-12T17:28:27.901Z,70.67
2023-12-12T17:30:57.859Z,74.27
2023-12-12T17:33:26.840Z,83.27
2023-12-12T17:35:55.989Z,97.37
2023-12-12T17:38:23.941Z,84.50
2023-12-12T17:40:52.573Z,94.67
2023-12-12T17:43:21.672Z,110.03
2023-12-12T17:45:51.120Z,98.27
2023-12-12T17:48:19.834Z,110.10
2023-12-12T17:50:51.558Z,110.00
2023-12-12T17:53:20.247Z,134.17
2023-12-12T17:55:49.594Z,125.20
2023-12-12T17:58:20.383Z,130.27
2023-12-12T18:00:49.653Z,109.43
2023-12-12T18:03:18.371Z,109.70
2023-12-12T18:05:48.957Z,116.23
2023-12-12T18:08:17.615Z,122.93
2023-12-12T18:10:46.422Z,101.03
2023-12-12T18:13:16.749Z,131.53
2023-12-12T18:15:45.599Z,176.67
2023-12-12T18:18:14.750Z,257.10
2023-12-12T18:20:43.625Z,214.87
2023-12-12T18:23:11.684Z,258.27
2023-12-12T18:25:42.133Z,278.10
2023-12-12T18:28:10.537Z,267.43
2023-12-12T18:30:41.200Z,285.67
2023-12-12T18:33:09.720Z,313.43
2023-12-12T18:35:39.408Z,184.97
2023-12-12T18:38:08.280Z,289.13
2023-12-12T18:40:38.629Z,232.27
2023-12-12T18:43:07.279Z,230.17
2023-12-12T18:45:37.594Z,125.17
2023-12-12T18:48:07.057Z,103.70
2023-12-12T18:50:36.748Z,136.67
2023-12-12T18:53:07.210Z,163.90
2023-12-12T18:55:36.715Z,175.13
2023-12-12T18:58:08.444Z,165.97
2023-12-12T19:00:37.764Z,179.73
2023-12-12T19:03:06.482Z,123.17
2023-12-12T19:05:34.734Z,77.30
2023-12-12T19:08:03.691Z,60.27
2023-12-12T19:10:32.765Z,61.87
2023-12-12T19:13:01.669Z,48.47
2023-12-12T19:15:30.344Z,60.63
2023-12-12T19:17:58.761Z,55.77
2023-12-12T19:20:27.926Z,47.33
2023-12-12T19:22:56.439Z,46.53
2023-12-12T19:25:25.555Z,49.67
2023-12-12T19:27:54.222Z,61.57
2023-12-12T19:30:23.119Z,68.87
2023-12-12T19:32:51.306Z,81.30
2023-12-12T19:35:21.805Z,70.83
2023-12-12T19:37:51.068Z,85.10
2023-12-12T19:40:20.436Z,78.80
2023-12-12T19:42:50.014Z,88.57
2023-12-12T19:45:18.515Z,140.03
2023-12-12T19:47:47.134Z,124.13
2023-12-12T19:50:17.487Z,156.10
2023-12-12T19:52:48.275Z,182.17
2023-12-12T19:55:18.325Z,198.13
2023-12-12T19:57:47.979Z,190.47
2023-12-12T20:02:43.684Z,182.65
2023-12-12T20:05:12.573Z,214.37
2023-12-12T20:07:41.735Z,207.80
2023-12-12T20:10:12.141Z,208.10
2023-12-12T20:12:42.396Z,173.73
2023-12-12T20:15:11.957Z,154.20
2023-12-12T20:17:40.251Z,159.73
2023-12-12T20:20:10.226Z,168.67
2023-12-12T20:25:08.372Z,196.95
2023-12-12T20:27:39.053Z,184.33
2023-12-12T20:30:08.689Z,170.73
2023-12-12T20:32:37.323Z,196.93
2023-12-12T20:35:06.591Z,185.63
2023-12-12T20:37:35.468Z,151.83
2023-12-12T20:40:05.636Z,166.03
2023-12-12T20:42:35.179Z,167.43
2023-12-12T20:45:05.394Z,161.30
2023-12-12T20:47:36.747Z,168.40
2023-12-12T20:50:06.084Z,108.30
2023-12-12T20:52:34.896Z,128.73
2023-12-12T20:55:04.740Z,79.00
2023-12-12T20:57:34.078Z,120.63
2023-12-12T21:00:02.381Z,93.60
2023-12-12T21:02:31.390Z,95.90
2023-12-12T21:05:00.493Z,112.60
2023-12-12T21:07:29.106Z,130.63
2023-12-12T21:09:57.966Z,125.53
2023-12-12T21:12:26.605Z,119.07
2023-12-12T21:14:55.559Z,117.23
2023-12-12T21:17:23.566Z,125.53
2023-12-12T21:19:52.333Z,115.80
2023-12-12T21:22:21.539Z,106.97
2023-12-12T21:24:49.896Z,147.37
2023-12-12T21:27:18.600Z,145.13
2023-12-12T21:29:47.465Z,141.80
2023-12-12T21:32:16.537Z,139.43
2023-12-12T21:34:45.472Z,151.30
2023-12-12T21:37:13.776Z,133.40
2023-12-12T21:39:43.139Z,139.80
2023-12-12T21:42:12.058Z,144.37
2023-12-12T21:44:41.672Z,156.00
2023-12-12T21:47:10.638Z,186.83
2023-12-12T21:49:39.588Z,189.07
2023-12-12T21:52:09.047Z,194.73
2023-12-12T21:54:37.819Z,188.03
2023-12-12T21:57:07.010Z,184.20
2023-12-12T21:59:36.150Z,192.70
2023-12-12T22:02:06.064Z,210.93
2023-12-12T22:07:02.016Z,156.97
2023-12-12T22:09:29.937Z,140.60
2023-12-12T22:11:58.328Z,132.63
2023-12-12T22:14:27.533Z,119.60
2023-12-12T22:16:55.680Z,139.93
2023-12-12T22:19:24.487Z,155.73
2023-12-12T22:21:53.975Z,165.27
2023-12-12T22:24:23.501Z,175.53
2023-12-12T22:26:51.447Z,160.43
2023-12-12T22:29:20.751Z,149.23
2023-12-12T22:31:48.770Z,172.60
2023-12-12T22:34:17.775Z,151.00
2023-12-12T22:36:46.527Z,130.87
2023-12-12T22:39:19.044Z,127.30
2023-12-12T22:41:44.801Z,121.63
2023-12-12T22:44:13.364Z,116.93
2023-12-12T22:46:41.624Z,135.57
2023-12-12T22:49:10.152Z,150.60
2023-12-12T22:51:39.368Z,149.33
2023-12-12T22:54:08.031Z,171.30
2023-12-12T22:56:36.624Z,163.50
2023-12-12T22:59:04.682Z,167.47
2023-12-12T23:01:33.485Z,186.93
2023-12-12T23:04:02.417Z,169.23
2023-12-12T23:06:31.686Z,167.80
2023-12-12T23:09:02.138Z,161.67
2023-12-12T23:11:30.212Z,178.40
2023-12-12T23:13:58.621Z,174.93
2023-12-12T23:16:27.407Z,154.23
2023-12-12T23:18:56.773Z,147.00
2023-12-12T23:21:25.634Z,123.70
2023-12-12T23:23:56.668Z,116.73
2023-12-12T23:26:25.470Z,123.20
2023-12-12T23:28:54.030Z,86.40
2023-12-12T23:31:24.846Z,111.47
2023-12-12T23:33:53.629Z,113.70
2023-12-12T23:36:21.745Z,111.60
2023-12-12T23:38:50.635Z,133.70
2023-12-12T23:41:19.280Z,173.60
2023-12-12T23:43:47.663Z,131.73
2023-12-12T23:46:15.992Z,106.87
2023-12-12T23:48:44.951Z,101.57
2023-12-12T23:51:19.715Z,125.77
2023-12-12T23:53:48.888Z,123.37
2023-12-12T23:56:17.372Z,121.00
2023-12-12T23:58:46.290Z,114.23
